Time;durP1;ratioP1;P1;durP2;ratioP2;P2;SDS_P1;SDS_P2;PMS_P1;PMS_P2;Temp;Humidity;BMP_temperature;BMP_pressure;BME280_temperature;BME280_humidity;BME280_pressure;Samples;Min_cycle;Max_cycle;Signal;HPM_P1;HPM_P2
2021/01/20 00:01:57;;;;;;;5.28;2.83;;;;;;;5.96;69.81;99202.31;4998743;28;20476;-79
2021/01/20 00:04:24;;;;;;;4.85;2.55;;;;;;;5.92;70.16;99181.94;5000789;28;20053;-79
2021/01/20 00:06:53;;;;;;;4.85;3.08;;;;;;;5.95;69.75;99197.94;4997724;28;20047;-79
2021/01/20 00:09:22;;;;;;;7.05;3.03;;;;;;;5.95;69.65;99189.66;4998789;28;20058;-79
2021/01/20 00:11:49;;;;;;;5.65;3.03;;;;;;;6.03;69.19;99183.38;4998010;28;20488;-79
2021/01/20 00:14:19;;;;;;;4.40;2.97;;;;;;;6.09;69.21;99173.00;5005491;28;20390;-79
2021/01/20 00:16:46;;;;;;;;;;;;;;;6.09;68.93;99187.63;5018348;28;20049;-79
2021/01/20 00:19:16;;;;;;;4.10;2.40;;;;;;;6.12;68.79;99183.41;5018711;28;19929;-79
2021/01/20 00:21:43;;;;;;;5.47;2.60;;;;;;;6.14;68.52;99170.09;5018380;28;20054;-79
2021/01/20 00:24:14;;;;;;;6.18;2.42;;;;;;;6.19;68.39;99152.53;5017185;28;20049;-79
2021/01/20 00:26:42;;;;;;;5.28;2.92;;;;;;;6.20;68.13;99156.94;5018100;28;20058;-79
2021/01/20 00:29:09;;;;;;;5.80;2.83;;;;;;;6.22;67.36;99146.41;5018635;28;20058;-79
2021/01/20 00:31:36;;;;;;;4.88;2.53;;;;;;;6.23;67.53;99145.25;5018332;28;20464;-79
2021/01/20 00:34:03;;;;;;;4.50;2.28;;;;;;;6.24;67.02;99144.13;4997834;28;20046;-79
2021/01/20 00:36:29;;;;;;;5.18;2.53;;;;;;;6.25;67.04;99134.69;4997948;28;20404;-79
2021/01/20 00:38:59;;;;;;;7.95;2.60;;;;;;;6.22;66.60;99144.44;4997897;28;20054;-79
2021/01/20 00:41:28;;;;;;;3.35;2.30;;;;;;;6.24;66.62;99139.41;4997463;28;20412;-79
2021/01/20 00:43:58;;;;;;;4.00;2.08;;;;;;;6.20;66.37;99143.13;4998254;28;20542;-79
2021/01/20 00:46:25;;;;;;;;;;;;;;;6.16;66.54;99125.53;4998024;28;20061;-79
2021/01/20 00:48:52;;;;;;;5.93;2.65;;;;;;;6.04;67.25;99129.69;4998093;28;19922;-79
2021/01/20 00:51:18;;;;;;;3.08;2.00;;;;;;;5.99;67.18;99146.44;4997725;28;20050;-79
2021/01/20 00:53:45;;;;;;;5.63;2.33;;;;;;;5.95;67.46;99150.97;5013874;28;20049;-78
2021/01/20 00:56:12;;;;;;;5.35;2.65;;;;;;;5.87;67.32;99124.06;5016628;28;20487;-79
2021/01/20 00:58:41;;;;;;;6.68;2.67;;;;;;;5.95;67.24;99152.91;5016841;28;20050;-79
2021/01/20 01:01:09;;;;;;;6.57;2.78;;;;;;;5.95;66.76;99137.13;5016831;28;20050;-79
2021/01/20 01:03:36;;;;;;;6.90;2.70;;;;;;;5.97;67.22;99145.13;5017809;28;20054;-79
2021/01/20 01:06:04;;;;;;;6.70;2.70;;;;;;;5.98;66.80;99130.97;5016938;28;20046;-79
2021/01/20 01:08:31;;;;;;;4.85;2.08;;;;;;;5.95;66.53;99120.56;5016908;28;20056;-79
2021/01/20 01:10:58;;;;;;;3.20;1.80;;;;;;;5.91;66.64;99119.53;5011185;28;20047;-79
2021/01/20 01:13:25;;;;;;;3.85;1.88;;;;;;;5.89;66.33;99119.84;4998168;28;20492;-79
2021/01/20 01:15:52;;;;;;;4.22;2.22;;;;;;;5.86;66.46;99120.47;4997680;28;20070;-79
2021/01/20 01:18:20;;;;;;;7.30;2.80;;;;;;;5.82;66.73;99132.50;4996527;28;20050;-79
2021/01/20 01:20:47;;;;;;;5.43;2.50;;;;;;;5.85;66.71;99126.31;4996559;28;20054;-79
2021/01/20 01:23:13;;;;;;;4.85;2.45;;;;;;;5.83;66.41;99118.34;5004032;28;20053;-79
2021/01/20 01:25:40;;;;;;;3.88;2.45;;;;;;;5.81;66.82;99122.56;5014152;28;20053;-79
2021/01/20 01:28:11;;;;;;;3.40;2.08;;;;;;;5.79;66.66;99114.56;5016646;28;20057;-79
2021/01/20 01:30:38;;;;;;;4.47;2.30;;;;;;;5.77;66.18;99107.75;5016336;28;20604;-79
2021/01/20 01:33:06;;;;;;;5.53;2.65;;;;;;;5.74;66.41;99111.94;5016924;28;20057;-79
2021/01/20 01:35:36;;;;;;;5.28;2.50;;;;;;;5.72;66.34;99103.16;5015240;28;20049;-79
2021/01/20 01:38:03;;;;;;;;;;;;;;;5.71;66.32;99120.84;5016437;28;20050;-77
2021/01/20 01:40:30;;;;;;;3.70;2.00;;;;;;;5.66;66.12;99108.00;5015864;28;19921;-79
2021/01/20 01:42:57;;;;;;;3.20;1.98;;;;;;;5.70;66.20;99102.66;5016681;28;20402;-79
2021/01/20 01:45:24;;;;;;;4.47;2.08;;;;;;;5.68;66.28;99124.25;5015869;28;20046;-79
2021/01/20 01:47:51;;;;;;;5.63;2.50;;;;;;;5.80;66.02;99099.63;5016368;28;20510;-79
2021/01/20 01:50:18;;;;;;;6.63;3.05;;;;;;;5.90;65.63;99113.19;5011457;28;20484;-79
2021/01/20 01:52:49;;;;;;;4.43;2.33;;;;;;;5.96;65.87;99107.53;4996828;28;20054;-79
2021/01/20 01:55:16;;;;;;;4.60;2.33;;;;;;;6.02;65.50;99095.22;4996309;28;20065;-79
2021/01/20 01:57:43;;;;;;;5.13;2.38;;;;;;;6.06;64.95;99094.25;4996724;28;20062;-79
2021/01/20 02:00:15;;;;;;;3.67;2.00;;;;;;;6.10;64.83;99100.78;4996700;28;20058;-79
2021/01/20 02:02:44;;;;;;;3.90;2.20;;;;;;;6.10;64.94;99086.16;4996669;28;20077;-79
2021/01/20 02:05:12;;;;;;;5.30;2.03;;;;;;;6.13;64.17;99101.28;5001360;28;20078;-79
2021/01/20 02:07:38;;;;;;;5.32;2.90;;;;;;;6.13;64.29;99087.47;5015690;28;20050;-79
2021/01/20 02:10:10;;;;;;;5.28;2.83;;;;;;;6.21;64.70;99079.19;5016712;28;20058;-79
2021/01/20 02:12:52;;;;;;;3.83;2.17;;;;;;;6.21;64.28;99072.84;5016125;28;20411;-79
2021/01/20 02:15:28;;;;;;;3.17;1.73;;;;;;;6.21;63.98;99073.66;5016492;28;20050;-79
2021/01/20 02:17:59;;;;;;;5.25;2.40;;;;;;;6.20;64.19;99062.94;5016406;28;20399;-79
2021/01/20 02:21:15;;;;;;;4.57;2.50;;;;;;;6.24;63.94;99080.53;5015356;28;20062;-79
2021/01/20 02:23:44;;;;;;;4.13;2.83;;;;;;;6.25;63.50;99055.31;5014545;28;20092;-79
2021/01/20 02:26:26;;;;;;;5.55;2.50;;;;;;;6.20;63.56;99049.13;5015765;28;20046;-79
2021/01/20 02:29:10;;;;;;;4.18;2.30;;;;;;;6.22;63.74;99055.97;5016394;28;20065;-79
2021/01/20 02:31:39;;;;;;;7.38;2.47;;;;;;;6.20;63.83;99049.13;5016209;28;20058;-79
2021/01/20 02:34:14;;;;;;;4.50;1.95;;;;;;;6.17;63.84;99052.50;5015714;28;20053;-79
2021/01/20 02:36:41;;;;;;;4.63;2.33;;;;;;;6.26;63.53;99053.38;5018495;28;20065;-79
2021/01/20 02:39:09;;;;;;;4.15;2.25;;;;;;;6.35;62.74;99059.75;5006971;28;20411;-79
2021/01/20 02:41:36;;;;;;;5.22;2.17;;;;;;;6.37;62.92;99049.16;5020228;28;20069;-79
2021/01/20 02:44:05;;;;;;;3.35;2.33;;;;;;;6.35;62.14;99051.44;5019694;28;20058;-79
2021/01/20 02:46:32;;;;;;;3.83;1.92;;;;;;;6.38;62.55;99052.75;5019396;28;20050;-79
2021/01/20 02:49:01;;;;;;;3.58;1.95;;;;;;;6.40;61.96;99067.88;5020678;28;20050;-79
2021/01/20 02:51:40;;;;;;;4.95;2.40;;;;;;;6.43;61.96;99056.19;5020044;28;20053;-79
2021/01/20 02:54:10;;;;;;;5.65;1.85;;;;;;;6.45;61.89;99069.69;5012538;28;20078;-79
2021/01/20 02:56:45;;;;;;;6.78;2.42;;;;;;;6.49;61.71;99049.38;5000583;28;20058;-79
2021/01/20 02:59:14;;;;;;;3.33;2.15;;;;;;;6.56;61.23;99068.25;5000068;28;20069;-79
2021/01/20 03:01:46;;;;;;;3.85;2.40;;;;;;;6.58;62.23;99049.38;5000575;28;20081;-79
2021/01/20 03:04:17;;;;;;;2.42;1.45;;;;;;;6.58;61.21;99023.66;4999663;28;20411;-79
2021/01/20 03:06:45;;;;;;;3.17;1.80;;;;;;;6.63;60.81;99040.91;4999428;28;20050;-79
2021/01/20 03:09:13;;;;;;;4.10;2.63;;;;;;;6.66;61.21;99031.16;5000420;28;20516;-79
2021/01/20 03:11:47;;;;;;;4.03;2.30;;;;;;;6.69;60.53;99041.56;5000405;28;20057;-79
2021/01/20 03:14:15;;;;;;;3.65;2.17;;;;;;;6.69;60.82;99030.50;4999513;28;20062;-79
2021/01/20 03:16:43;;;;;;;5.68;2.42;;;;;;;6.71;60.95;99044.84;4999610;28;20054;-79
2021/01/20 03:19:09;;;;;;;3.75;2.40;;;;;;;6.73;60.77;99052.81;5006196;28;20061;-79
2021/01/20 03:21:37;;;;;;;4.82;2.28;;;;;;;6.75;61.03;99054.13;5019591;28;20495;-79
2021/01/20 03:24:05;;;;;;;5.50;2.70;;;;;;;6.82;61.10;99032.28;5017220;28;20042;-79
2021/01/20 03:26:32;;;;;;;4.40;2.53;;;;;;;6.85;61.77;99034.44;5018886;28;20057;-79
2021/01/20 03:28:59;;;;;;;4.40;1.92;;;;;;;6.87;61.46;99043.22;5018192;28;20053;-79
2021/01/20 03:31:26;;;;;;;4.75;2.70;;;;;;;6.95;61.43;99022.22;5018421;28;20050;-79
2021/01/20 03:33:55;;;;;;;3.80;2.42;;;;;;;6.93;61.68;99016.22;5018079;28;20061;-79
2021/01/20 03:36:22;;;;;;;4.53;2.67;;;;;;;6.99;61.29;99017.69;5017469;28;20065;-79
2021/01/20 03:38:50;;;;;;;3.03;2.13;;;;;;;7.01;60.74;99011.78;5011333;28;20050;-79
2021/01/20 03:41:17;;;;;;;6.25;2.88;;;;;;;7.02;60.68;99014.25;4997855;28;20426;-79
2021/01/20 03:43:44;;;;;;;4.03;2.85;;;;;;;7.06;60.97;99009.69;4998780;28;20073;-79
2021/01/20 03:46:11;;;;;;;4.32;2.17;;;;;;;7.05;60.46;99013.56;4998009;28;20403;-79
2021/01/20 03:48:38;;;;;;;4.10;2.25;;;;;;;7.09;60.59;99011.78;4998950;28;20054;-79
2021/01/20 03:51:05;;;;;;;4.55;2.30;;;;;;;7.10;60.86;99015.38;4998530;28;20069;-79
2021/01/20 03:53:34;;;;;;;4.40;2.33;;;;;;;7.07;62.41;99021.56;5005013;28;20054;-79
2021/01/20 03:56:02;;;;;;;4.30;1.88;;;;;;;7.14;62.58;98999.75;5018367;28;20518;-79
2021/01/20 03:58:29;;;;;;;5.68;2.30;;;;;;;7.14;62.42;98996.97;5017845;28;20054;-79
2021/01/20 04:00:56;;;;;;;5.03;2.55;;;;;;;7.25;62.50;99009.31;5018109;28;20404;-80
2021/01/20 04:03:23;;;;;;;4.05;2.05;;;;;;;7.31;62.11;99004.44;5017679;28;20088;-80
2021/01/20 04:05:50;;;;;;;4.10;2.72;;;;;;;7.29;61.63;98996.44;5017237;28;20054;-79
2021/01/20 04:08:17;;;;;;;3.65;2.28;;;;;;;7.34;61.65;98998.22;5011012;28;20050;-80
2021/01/20 04:10:44;;;;;;;3.85;1.98;;;;;;;7.32;61.45;98994.97;4998003;28;20054;-80
2021/01/20 04:13:11;;;;;;;4.00;2.45;;;;;;;7.29;61.33;98990.91;5008028;28;20495;-79
2021/01/20 04:15:38;;;;;;;3.53;2.30;;;;;;;7.34;60.83;98991.88;5017822;28;20058;-80
2021/01/20 04:18:05;;;;;;;5.78;2.55;;;;;;;7.33;60.96;98991.06;5017941;28;20064;-79
2021/01/20 04:20:32;;;;;;;4.32;2.50;;;;;;;7.32;61.22;98990.25;5016175;28;20112;-79
2021/01/20 04:22:59;;;;;;;3.15;2.20;;;;;;;7.27;60.89;98965.50;5017265;28;20046;-80
2021/01/20 04:25:26;;;;;;;5.15;2.63;;;;;;;7.28;61.05;98971.84;4999695;28;20058;-79
2021/01/20 04:27:53;;;;;;;2.85;2.05;;;;;;;7.29;60.21;98979.84;4997493;28;20058;-79
2021/01/20 04:30:22;;;;;;;3.42;2.40;;;;;;;7.26;61.17;98969.41;4996881;28;20069;-79
2021/01/20 04:32:49;;;;;;;2.78;2.10;;;;;;;7.29;60.53;98985.38;4996929;28;20061;-79
2021/01/20 04:35:18;;;;;;;3.78;2.63;;;;;;;7.28;60.87;98966.31;4997431;28;20046;-79
2021/01/20 04:37:45;;;;;;;3.30;2.30;;;;;;;7.35;60.23;98965.78;4996544;28;20054;-79
2021/01/20 04:40:12;;;;;;;3.63;2.00;;;;;;;7.32;60.92;98957.00;5015258;28;20061;-80
2021/01/20 04:42:39;;;;;;;5.53;2.50;;;;;;;7.35;60.50;98979.66;5016446;28;20496;-80
2021/01/20 04:45:07;;;;;;;5.72;2.55;;;;;;;7.34;60.29;98955.88;5016245;28;20078;-79
2021/01/20 04:47:36;;;;;;;3.80;2.60;;;;;;;7.32;60.18;98962.53;5016021;28;20537;-80
2021/01/20 04:50:06;;;;;;;3.15;1.98;;;;;;;7.30;60.04;98945.44;5016435;28;20062;-80
2021/01/20 04:52:33;;;;;;;4.20;2.33;;;;;;;7.31;59.68;98943.50;5016450;28;20073;-80
2021/01/20 04:55:01;;;;;;;3.20;2.20;;;;;;;7.26;59.76;98944.47;5015511;28;20389;-79
2021/01/20 04:57:28;;;;;;;3.90;2.42;;;;;;;7.31;59.76;98943.50;5016307;28;20061;-79
2021/01/20 04:59:55;;;;;;;4.82;2.90;;;;;;;7.25;60.08;98945.63;5015913;28;20057;-80
2021/01/20 05:02:24;;;;;;;3.47;1.98;;;;;;;7.22;60.24;98923.31;5016466;28;20514;-80
2021/01/20 05:04:51;;;;;;;4.07;2.78;;;;;;;7.18;59.88;98931.50;5016027;28;20053;-80
2021/01/20 05:07:19;;;;;;;4.65;2.90;;;;;;;7.21;59.54;98911.44;5015782;28;20400;-80
2021/01/20 05:09:46;;;;;;;4.57;2.42;;;;;;;7.24;59.08;98916.28;4997119;28;20054;-80
2021/01/20 05:12:38;;;;;;;4.72;2.40;;;;;;;7.24;59.38;98921.84;4996622;28;20512;-80
2021/01/20 05:15:07;;;;;;;3.83;2.15;;;;;;;7.21;58.29;98892.06;4996857;28;20496;-80
2021/01/20 05:17:35;;;;;;;5.22;2.60;;;;;;;7.17;59.03;98898.59;4995749;28;20058;-80
2021/01/20 05:20:04;;;;;;;3.53;2.40;;;;;;;7.16;58.16;98866.50;5009852;28;20419;-80
2021/01/20 05:22:31;;;;;;;5.43;2.40;;;;;;;7.25;57.95;98887.47;5015134;28;20077;-80
2021/01/20 05:24:59;;;;;;;3.75;2.78;;;;;;;7.26;58.01;98879.97;5010659;28;20505;-80
2021/01/20 05:27:29;;;;;;;3.97;2.40;;;;;;;7.27;58.12;98863.03;5015871;28;20061;-80
2021/01/20 05:29:58;;;;;;;3.47;2.05;;;;;;;7.30;57.37;98876.19;5016257;28;20506;-80
2021/01/20 05:32:25;;;;;;;4.18;2.15;;;;;;;7.37;56.94;98870.16;5016146;28;20053;-80
2021/01/20 05:35:00;;;;;;;4.35;2.30;;;;;;;7.38;55.92;98871.78;5018188;28;20383;-80
2021/01/20 05:37:31;;;;;;;4.13;2.65;;;;;;;7.47;56.26;98864.22;5015704;28;20085;-80
2021/01/20 05:40:09;;;;;;;3.92;2.55;;;;;;;7.50;55.80;98874.66;5001575;28;20066;-80
2021/01/20 05:42:55;;;;;;;5.03;2.10;;;;;;;7.56;55.58;98869.75;5016419;28;20392;-82
2021/01/20 05:45:23;;;;;;;4.20;2.60;;;;;;;7.63;55.45;98861.72;5015250;28;20471;-79
2021/01/20 05:48:04;;;;;;;4.28;1.90;;;;;;;7.63;55.06;98850.63;5015616;28;20483;-80
2021/01/20 05:50:32;;;;;;;3.58;2.38;;;;;;;7.70;55.00;98852.88;5016165;28;20054;-80
2021/01/20 05:53:08;;;;;;;7.32;2.88;;;;;;;7.71;54.85;98869.19;5013835;28;20054;-79
2021/01/20 05:55:36;;;;;;;4.25;2.47;;;;;;;7.75;54.54;98852.69;4995755;28;20396;-79
2021/01/20 05:58:03;;;;;;;4.10;2.67;;;;;;;7.74;53.97;98839.97;4996174;28;20073;-79
2021/01/20 06:00:30;;;;;;;5.22;2.47;;;;;;;7.78;53.69;98832.59;4995776;28;20396;-80
2021/01/20 06:02:58;;;;;;;3.58;2.38;;;;;;;7.75;53.99;98874.88;5009981;28;20148;-80
2021/01/20 06:05:26;;;;;;;3.80;2.22;;;;;;;7.81;54.15;98845.81;5015663;28;20129;-80
2021/01/20 06:07:54;;;;;;;3.70;2.50;;;;;;;7.72;54.48;98818.13;5008158;28;20046;-79
2021/01/20 06:16:29;;;;;;;3.80;1.90;;;;;;;7.77;54.66;98850.41;4991703;28;20404;-79
2021/01/20 06:19:03;;;;;;;4.53;2.63;;;;;;;7.80;54.85;98835.06;5000225;28;20057;-79
2021/01/20 06:21:32;;;;;;;3.60;2.40;;;;;;;7.80;55.13;98829.50;5014872;28;20404;-79
2021/01/20 06:24:19;;;;;;;3.63;2.30;;;;;;;7.77;55.02;98819.91;5012511;28;20042;-79
2021/01/20 06:26:53;;;;;;;3.80;2.10;;;;;;;7.78;54.71;98857.56;5014352;28;20054;-79
2021/01/20 06:29:25;;;;;;;2.55;1.65;;;;;;;7.80;54.89;98833.09;5013352;28;20399;-79
2021/01/20 06:31:55;;;;;;;4.97;2.53;;;;;;;7.75;55.47;98840.78;5008662;28;20046;-79
2021/01/20 06:34:22;;;;;;;3.78;2.10;;;;;;;7.78;55.87;98824.28;4995147;28;20053;-79
2021/01/20 06:36:49;;;;;;;4.72;1.92;;;;;;;7.78;55.92;98829.84;4994745;28;20535;-79
2021/01/20 06:39:35;;;;;;;4.93;2.15;;;;;;;7.84;55.91;98867.31;4995245;28;20148;-79
2021/01/20 06:42:03;;;;;;;4.68;2.78;;;;;;;7.86;56.25;98839.25;4995124;28;20061;-79
2021/01/20 06:44:30;;;;;;;4.13;2.20;;;;;;;7.83;56.17;98854.59;4995669;28;20055;-79
2021/01/20 06:47:02;;;;;;;3.08;2.08;;;;;;;7.89;55.99;98835.78;5023070;28;20084;-84
2021/01/20 06:49:30;;;;;;;2.75;1.65;;;;;;;7.89;56.37;98846.88;5026173;28;20050;-84
2021/01/20 06:52:12;;;;;;;3.75;1.80;;;;;;;8.00;56.36;98825.94;5026377;28;20065;-84
2021/01/20 06:54:43;;;;;;;3.75;2.15;;;;;;;8.03;56.15;98839.13;5026421;28;20489;-86
2021/01/20 06:57:31;;;;;;;3.45;2.15;;;;;;;8.09;56.04;98839.75;5028486;28;20054;-85
2021/01/20 07:00:12;;;;;;;3.67;1.88;;;;;;;8.09;56.68;98846.09;5020637;28;20051;-85
2021/01/20 07:03:04;;;;;;;4.15;2.45;;;;;;;8.06;56.51;98832.09;5007374;28;20409;-84
2021/01/20 07:05:38;;;;;;;3.63;2.10;;;;;;;8.06;56.18;98832.91;5006399;28;20062;-83
2021/01/20 07:08:10;;;;;;;3.45;1.75;;;;;;;8.01;55.70;98854.47;5016622;28;20053;-84
2021/01/20 07:11:06;;;;;;;3.63;2.50;;;;;;;8.01;55.53;98833.09;4997696;28;20058;-81
2021/01/20 07:13:39;;;;;;;6.47;2.35;;;;;;;7.97;56.11;98837.69;5002300;28;20061;-81
2021/01/20 07:16:08;;;;;;;4.18;2.17;;;;;;;7.93;55.98;98861.69;4997522;28;20058;-81
2021/01/20 07:18:39;;;;;;;2.88;2.00;;;;;;;7.95;56.30;98844.72;4999560;28;20061;-80
2021/01/20 07:21:07;;;;;;;3.42;2.05;;;;;;;7.92;57.06;98841.50;5016996;28;20419;-80
2021/01/20 07:23:37;;;;;;;2.92;1.63;;;;;;;7.94;55.67;98843.94;5019037;28;20053;-80
2021/01/20 07:26:05;;;;;;;3.35;2.30;;;;;;;7.97;56.05;98845.22;5008372;28;20050;-81
2021/01/20 07:28:33;;;;;;;3.97;2.05;;;;;;;7.95;55.77;98833.66;4999756;28;20062;-81
2021/01/20 07:31:16;;;;;;;4.00;1.92;;;;;;;8.00;55.96;98837.03;5001386;28;20069;-82
2021/01/20 07:33:51;;;;;;;3.90;2.38;;;;;;;7.97;56.07;98848.78;5003745;28;20060;-85
2021/01/20 07:36:21;;;;;;;2.92;1.98;;;;;;;7.85;55.88;98841.22;5013175;28;20054;-81
2021/01/20 07:38:49;;;;;;;2.90;1.70;;;;;;;7.83;55.99;98826.88;5003766;28;20062;-80
2021/01/20 07:42:17;;;;;;;4.43;2.33;;;;;;;7.85;56.06;98824.59;5013505;28;20058;-82
2021/01/20 07:48:58;;;;;;;3.85;2.10;;;;;;;7.74;56.37;98823.34;5019738;28;20058;-82
2021/01/20 07:51:50;;;;;;;3.13;1.73;;;;;;;7.75;56.31;98818.59;5012786;28;20530;-81
2021/01/20 07:54:39;;;;;;;3.72;1.98;;;;;;;7.82;56.12;98814.16;5010242;28;20523;-79
2021/01/20 07:57:21;;;;;;;2.70;1.80;;;;;;;7.81;55.46;98823.63;5010812;28;20062;-80
2021/01/20 08:00:29;;;;;;;3.10;1.88;;;;;;;7.80;55.95;98794.28;5008962;28;20061;-80
2021/01/20 08:18:01;;;;;;;2.75;1.50;;;;;;;8.05;54.53;98799.97;4882369;29;20067;-79
2021/01/20 08:20:33;;;;;;;3.00;1.92;;;;;;;8.10;54.45;98803.34;4970413;28;20065;-81
2021/01/20 08:23:00;;;;;;;4.50;2.53;;;;;;;8.19;54.43;98821.88;5015315;28;20064;-78
2021/01/20 08:25:27;;;;;;;3.35;2.00;;;;;;;8.16;54.52;98790.09;5010090;28;20502;-79
2021/01/20 08:27:54;;;;;;;4.15;1.92;;;;;;;8.21;54.51;98808.47;5006812;28;20049;-79
2021/01/20 08:30:32;;;;;;;6.68;2.00;;;;;;;8.29;54.14;98811.19;5012494;28;20054;-84
2021/01/20 08:33:00;;;;;;;3.60;2.13;;;;;;;8.23;53.99;98828.34;5005442;28;20059;-84
2021/01/20 08:35:31;;;;;;;3.78;1.88;;;;;;;8.19;54.35;98821.88;5003522;28;20046;-81
2021/01/20 08:37:59;;;;;;;3.28;2.10;;;;;;;8.26;54.33;98827.69;5005107;28;20077;-81
2021/01/20 08:40:26;;;;;;;3.63;1.90;;;;;;;8.35;54.21;98831.19;5010905;28;20053;-80
2021/01/20 08:42:53;;;;;;;3.28;1.90;;;;;;;8.40;53.95;98833.78;5011683;28;20053;-80
2021/01/20 08:45:34;;;;;;;2.45;1.58;;;;;;;8.50;53.76;98825.06;5008970;28;20062;-80
2021/01/20 08:48:05;;;;;;;4.20;2.25;;;;;;;8.49;53.85;98845.63;5010241;28;20483;-80
2021/01/20 08:50:38;;;;;;;3.65;2.03;;;;;;;8.61;53.59;98846.81;5006811;28;20057;-80
2021/01/20 08:53:06;;;;;;;3.35;2.47;;;;;;;8.73;53.61;98828.25;5005938;28;20054;-81
2021/01/20 08:55:35;;;;;;;2.70;1.77;;;;;;;8.74;53.38;98821.53;5006965;28;20399;-81
2021/01/20 08:58:22;;;;;;;3.58;1.83;;;;;;;8.69;52.90;98819.00;5003702;28;20396;-81
2021/01/20 09:00:50;;;;;;;2.97;1.70;;;;;;;8.72;52.75;98825.81;5006289;28;20050;-80
2021/01/20 09:03:19;;;;;;;3.53;2.08;;;;;;;8.84;52.76;98825.03;5010922;28;20062;-82
2021/01/20 09:05:46;;;;;;;3.60;2.10;;;;;;;9.03;52.30;98821.72;5006190;28;20507;-82
2021/01/20 09:08:14;;;;;;;3.25;1.90;;;;;;;9.30;52.18;98832.19;5007700;28;20501;-80
2021/01/20 09:10:42;;;;;;;2.90;2.13;;;;;;;9.98;49.94;98802.13;5004768;28;20081;-80
2021/01/20 09:13:08;;;;;;;2.97;2.15;;;;;;;10.96;46.94;98810.88;5003398;28;20058;-81
2021/01/20 09:15:36;;;;;;;3.50;2.50;;;;;;;11.68;45.49;98818.22;5009435;28;20050;-81
2021/01/20 09:18:06;;;;;;;3.45;2.38;;;;;;;12.99;41.98;98814.97;5007893;28;20444;-81
2021/01/20 09:20:38;;;;;;;4.03;2.75;;;;;;;14.05;39.98;98855.50;5014567;28;20133;-82
2021/01/20 09:23:05;;;;;;;3.20;1.95;;;;;;;12.60;42.20;98829.03;5006318;28;20058;-81
2021/01/20 09:25:32;;;;;;;3.42;2.30;;;;;;;12.84;42.02;98827.06;5005575;28;20061;-81
2021/01/20 09:28:01;;;;;;;3.20;2.22;;;;;;;12.32;43.21;98832.00;4998993;28;20439;-81
2021/01/20 09:30:28;;;;;;;3.97;1.92;;;;;;;12.32;42.42;98815.25;5010129;28;20411;-81
2021/01/20 09:32:55;;;;;;;3.65;2.28;;;;;;;11.95;43.76;98818.47;5008154;28;20057;-81
2021/01/20 09:35:22;;;;;;;3.83;2.20;;;;;;;12.16;42.94;98830.09;5002912;28;20062;-79
2021/01/20 09:37:53;;;;;;;3.53;2.33;;;;;;;11.91;44.05;98810.00;5002307;28;20062;-79
2021/01/20 09:40:22;;;;;;;4.05;2.40;;;;;;;11.74;44.28;98825.16;5003015;28;20050;-82
2021/01/20 09:42:52;;;;;;;3.55;2.70;;;;;;;11.82;43.92;98811.34;5011339;28;20065;-81
2021/01/20 09:45:22;;;;;;;4.28;2.30;;;;;;;13.70;39.63;98812.59;5007825;28;20050;-81
2021/01/20 09:47:49;;;;;;;3.83;2.90;;;;;;;15.43;36.18;98827.53;5002019;28;20054;-82
2021/01/20 09:50:17;;;;;;;3.75;2.67;;;;;;;16.46;34.05;98788.47;5013038;28;20053;-80
2021/01/20 09:52:47;;;;;;;2.78;2.40;;;;;;;17.48;31.66;98777.84;5000470;28;20050;-79
2021/01/20 09:55:16;;;;;;;3.10;1.98;;;;;;;17.90;30.37;98781.03;5003683;28;20058;-79
2021/01/20 09:57:43;;;;;;;5.05;3.10;;;;;;;19.11;28.78;98782.56;5009868;28;20061;-80
2021/01/20 10:00:11;;;;;;;3.72;2.85;;;;;;;20.14;26.81;98774.38;5005182;28;20046;-78
2021/01/20 10:02:40;;;;;;;5.70;2.90;;;;;;;20.32;26.58;98785.47;5007171;28;20057;-81
2021/01/20 10:05:09;;;;;;;3.03;2.47;;;;;;;20.64;25.70;98809.75;5011237;28;20050;-80
2021/01/20 10:07:36;;;;;;;3.95;2.88;;;;;;;21.06;24.76;98773.59;5003327;28;20365;-82
2021/01/20 10:10:12;;;;;;;4.75;2.78;;;;;;;19.71;26.82;98790.97;5000912;28;20042;-80
2021/01/20 10:12:40;;;;;;;5.05;2.47;;;;;;;19.52;26.99;98769.72;5001737;28;20061;-82
2021/01/20 10:15:09;;;;;;;4.90;2.80;;;;;;;18.01;29.48;98753.63;5008144;28;20058;-83
2021/01/20 10:17:36;;;;;;;4.25;2.60;;;;;;;15.93;32.66;98764.53;5012229;28;20064;-79
2021/01/20 10:20:06;;;;;;;4.53;2.50;;;;;;;15.50;33.71;98764.25;5001900;28;20054;-78
2021/01/20 10:22:33;;;;;;;3.15;2.30;;;;;;;14.68;35.39;98781.09;5010741;28;20049;-78
2021/01/20 10:24:59;;;;;;;3.50;2.60;;;;;;;14.13;36.72;98774.03;4996936;28;20054;-79
2021/01/20 10:27:26;;;;;;;3.92;2.75;;;;;;;13.87;37.19;98760.09;5006795;28;20067;-80
2021/01/20 10:29:54;;;;;;;4.63;2.92;;;;;;;13.91;37.02;98786.13;4996896;28;20385;-80
2021/01/20 10:32:21;;;;;;;4.70;2.60;;;;;;;14.76;35.08;98757.56;5011130;28;20061;-81
2021/01/20 10:34:48;;;;;;;4.25;3.40;;;;;;;17.48;30.91;98732.81;5011953;28;20069;-78
2021/01/20 10:37:15;;;;;;;4.20;3.28;;;;;;;18.86;28.16;98729.09;5013170;28;20053;-81
2021/01/20 10:39:43;;;;;;;4.15;3.35;;;;;;;20.64;25.50;98714.41;5004461;28;20061;-81
2021/01/20 10:42:09;;;;;;;4.20;3.50;;;;;;;21.37;24.03;98720.53;4995062;28;20054;-79
2021/01/20 10:44:36;;;;;;;3.97;3.10;;;;;;;22.44;22.57;98708.41;4999501;28;20147;-80
2021/01/20 10:47:04;;;;;;;3.72;3.30;;;;;;;22.93;21.71;98700.00;4998541;28;20491;-80
2021/01/20 10:49:32;;;;;;;3.90;3.60;;;;;;;23.16;21.26;98699.06;5012694;28;20046;-82
2021/01/20 10:51:58;;;;;;;4.10;3.70;;;;;;;23.42;20.80;98680.13;5014221;28;20058;-79
2021/01/20 10:54:26;;;;;;;4.70;4.30;;;;;;;24.33;19.88;98698.38;5008577;28;20042;-80
2021/01/20 10:56:53;;;;;;;5.43;5.00;;;;;;;24.17;19.81;98697.22;5012170;28;20042;-83
2021/01/20 10:59:20;;;;;;;5.60;5.20;;;;;;;24.43;19.45;98695.22;5006651;28;20165;-79
2021/01/20 11:01:46;;;;;;;4.45;4.05;;;;;;;23.32;20.46;98694.63;5014634;28;20057;-79
2021/01/20 11:04:16;;;;;;;5.80;5.40;;;;;;;21.98;21.95;98708.09;5009851;28;20619;-80
2021/01/20 11:06:43;;;;;;;5.60;5.20;;;;;;;22.23;21.87;98721.81;5014638;28;20061;-80
2021/01/20 11:09:09;;;;;;;5.20;4.75;;;;;;;21.60;22.48;98721.78;5008013;28;20053;-80
2021/01/20 11:11:36;;;;;;;10.13;9.52;;;;;;;21.99;22.16;98746.56;5006692;28;20058;-80
2021/01/20 11:14:03;;;;;;;9.63;9.02;;;;;;;21.35;22.61;98716.53;5010971;28;20061;-80
2021/01/20 11:16:30;;;;;;;11.23;10.52;;;;;;;22.99;21.15;98734.34;5006305;28;20050;-80
2021/01/20 11:18:57;;;;;;;9.85;9.15;;;;;;;22.29;21.28;98722.88;5009765;28;20518;-80
2021/01/20 11:21:24;;;;;;;19.75;18.85;;;;;;;21.52;22.14;98743.75;5009422;28;20072;-80
2021/01/20 11:23:51;;;;;;;15.23;14.35;;;;;;;21.38;22.49;98722.13;5004081;28;20050;-80
2021/01/20 11:26:18;;;;;;;10.20;9.60;;;;;;;20.98;22.55;98709.88;5005284;28;20058;-80
2021/01/20 11:28:45;;;;;;;17.02;16.13;;;;;;;20.84;22.87;98705.22;5007565;28;20423;-80
2021/01/20 11:31:12;;;;;;;15.73;14.70;;;;;;;20.18;24.00;98704.47;5006920;28;20054;-80
2021/01/20 11:33:39;;;;;;;14.98;14.27;;;;;;;21.60;22.46;98699.13;5008780;28;20424;-80
2021/01/20 11:36:07;;;;;;;25.50;24.40;;;;;;;22.65;21.11;98670.25;5010401;28;20050;-80
2021/01/20 11:38:35;;;;;;;14.48;13.70;;;;;;;23.45;20.39;98669.91;5007787;28;20054;-80
2021/01/20 11:41:03;;;;;;;18.92;18.02;;;;;;;23.44;19.96;98669.13;5007375;28;20396;-80
2021/01/20 11:43:30;;;;;;;34.55;32.95;;;;;;;23.48;19.34;98658.47;5005583;28;20054;-81
2021/01/20 11:45:57;;;;;;;4.63;3.05;;;;;;;21.18;21.84;98656.94;5012563;28;20507;-81
2021/01/20 11:48:25;;;;;;;17.73;16.83;;;;;;;21.45;21.87;98656.88;5013803;28;20049;-82
2021/01/20 11:50:52;;;;;;;17.13;16.33;;;;;;;22.85;19.75;98661.69;5016186;28;20053;-82
2021/01/20 11:53:18;;;;;;;3.75;3.22;;;;;;;20.99;22.38;98655.63;5018206;28;20676;-81
2021/01/20 11:55:46;;;;;;;3.67;2.53;;;;;;;18.59;25.59;98672.44;5009305;28;20054;-82
2021/01/20 11:58:13;;;;;;;3.65;2.15;;;;;;;16.71;28.57;98670.47;5016591;28;20475;-82
2021/01/20 12:00:40;;;;;;;3.75;2.85;;;;;;;15.70;30.07;98703.81;5008557;28;20434;-81
2021/01/20 12:03:07;;;;;;;3.60;3.30;;;;;;;16.63;29.36;98678.09;5000537;28;20054;-80
2021/01/20 12:05:34;;;;;;;9.93;9.32;;;;;;;18.94;25.26;98646.03;5018000;28;20050;-82
2021/01/20 12:08:02;;;;;;;9.25;8.40;;;;;;;19.01;25.48;98637.50;5011351;28;20077;-80
2021/01/20 12:10:29;;;;;;;4.95;4.55;;;;;;;19.78;24.15;98647.63;5012029;28;20160;-80
2021/01/20 12:12:57;;;;;;;4.90;4.50;;;;;;;18.69;25.88;98643.38;4999892;28;20408;-80
2021/01/20 12:15:30;;;;;;;5.45;4.93;;;;;;;18.24;26.38;98629.94;5003050;28;20369;-83
2021/01/20 12:17:57;;;;;;;18.38;17.45;;;;;;;18.99;25.20;98614.53;5006412;28;20050;-79